sensor_id;sensor_type;location;lat;lon;timestamp;P1;durP1;ratioP1;P2;durP2;ratioP2
37517;SDS011;23366;52.498;13.446;2023-03-29T00:01:31;6.78;;;3.33;;
37517;SDS011;23366;52.498;13.446;2023-03-29T00:03:58;8.82;;;3.25;;
37517;SDS011;23366;52.498;13.446;2023-03-29T00:06:24;3.83;;;2.28;;
37517;SDS011;23366;52.498;13.446;2023-03-29T00:08:55;7.05;;;2.55;;
37517;SDS011;23366;52.498;13.446;2023-03-29T00:11:21;7.80;;;3.47;;
37517;SDS011;23366;52.498;13.446;2023-03-29T00:13:50;6.18;;;2.85;;
37517;SDS011;23366;52.498;13.446;2023-03-29T00:16:16;3.67;;;2.10;;
37517;SDS011;23366;52.498;13.446;2023-03-29T00:18:42;4.75;;;2.42;;
37517;SDS011;23366;52.498;13.446;2023-03-29T00:21:08;7.95;;;3.17;;
37517;SDS011;23366;52.498;13.446;2023-03-29T00:23:34;6.32;;;3.15;;
37517;SDS011;23366;52.498;13.446;2023-03-29T00:25:59;9.25;;;3.80;;
37517;SDS011;23366;52.498;13.446;2023-03-29T00:28:27;9.80;;;3.65;;
37517;SDS011;23366;52.498;13.446;2023-03-29T00:30:53;4.88;;;3.22;;
37517;SDS011;23366;52.498;13.446;2023-03-29T00:33:27;4.97;;;2.53;;
37517;SDS011;23366;52.498;13.446;2023-03-29T00:35:52;9.43;;;3.63;;
37517;SDS011;23366;52.498;13.446;2023-03-29T00:38:18;12.07;;;4.15;;
37517;SDS011;23366;52.498;13.446;2023-03-29T00:40:44;6.45;;;3.55;;
37517;SDS011;23366;52.498;13.446;2023-03-29T00:43:11;14.48;;;4.70;;
37517;SDS011;23366;52.498;13.446;2023-03-29T00:45:38;9.57;;;4.43;;
37517;SDS011;23366;52.498;13.446;2023-03-29T00:48:05;13.15;;;2.90;;
37517;SDS011;23366;52.498;13.446;2023-03-29T00:53:17;5.57;;;3.05;;
37517;SDS011;23366;52.498;13.446;2023-03-29T00:56:06;6.65;;;2.53;;
37517;SDS011;23366;52.498;13.446;2023-03-29T01:06:52;4.40;;;2.78;;
37517;SDS011;23366;52.498;13.446;2023-03-29T01:09:31;5.05;;;3.05;;
37517;SDS011;23366;52.498;13.446;2023-03-29T01:12:02;4.88;;;2.58;;
37517;SDS011;23366;52.498;13.446;2023-03-29T01:14:37;2.97;;;2.28;;
37517;SDS011;23366;52.498;13.446;2023-03-29T01:17:06;2.58;;;2.35;;
37517;SDS011;23366;52.498;13.446;2023-03-29T01:19:33;3.38;;;1.95;;
37517;SDS011;23366;52.498;13.446;2023-03-29T01:27:54;5.40;;;2.17;;
37517;SDS011;23366;52.498;13.446;2023-03-29T01:33:30;4.70;;;2.88;;
37517;SDS011;23366;52.498;13.446;2023-03-29T01:36:20;7.45;;;3.80;;
37517;SDS011;23366;52.498;13.446;2023-03-29T01:38:56;8.00;;;4.30;;
37517;SDS011;23366;52.498;13.446;2023-03-29T01:44:08;5.32;;;3.20;;
37517;SDS011;23366;52.498;13.446;2023-03-29T01:46:47;7.63;;;2.83;;
37517;SDS011;23366;52.498;13.446;2023-03-29T01:54:53;6.55;;;1.65;;
37517;SDS011;23366;52.498;13.446;2023-03-29T01:57:24;2.55;;;1.85;;
37517;SDS011;23366;52.498;13.446;2023-03-29T01:59:51;2.25;;;1.77;;
37517;SDS011;23366;52.498;13.446;2023-03-29T02:02:19;3.15;;;2.20;;
37517;SDS011;23366;52.498;13.446;2023-03-29T02:04:48;4.13;;;2.15;;
37517;SDS011;23366;52.498;13.446;2023-03-29T02:07:17;3.78;;;1.85;;
37517;SDS011;23366;52.498;13.446;2023-03-29T02:09:47;5.47;;;2.78;;
37517;SDS011;23366;52.498;13.446;2023-03-29T02:12:18;9.13;;;2.25;;
37517;SDS011;23366;52.498;13.446;2023-03-29T02:14:44;4.80;;;2.08;;
37517;SDS011;23366;52.498;13.446;2023-03-29T02:17:20;5.90;;;1.77;;
37517;SDS011;23366;52.498;13.446;2023-03-29T02:19:48;8.25;;;2.33;;
37517;SDS011;23366;52.498;13.446;2023-03-29T02:22:40;4.75;;;1.70;;
37517;SDS011;23366;52.498;13.446;2023-03-29T02:25:14;9.25;;;1.83;;
37517;SDS011;23366;52.498;13.446;2023-03-29T02:27:41;3.05;;;1.80;;
37517;SDS011;23366;52.498;13.446;2023-03-29T02:30:07;2.97;;;1.70;;
37517;SDS011;23366;52.498;13.446;2023-03-29T02:35:15;8.43;;;3.67;;
37517;SDS011;23366;52.498;13.446;2023-03-29T02:37:46;9.10;;;3.35;;
37517;SDS011;23366;52.498;13.446;2023-03-29T02:40:15;9.23;;;4.22;;
37517;SDS011;23366;52.498;13.446;2023-03-29T02:42:42;11.45;;;3.53;;
37517;SDS011;23366;52.498;13.446;2023-03-29T02:45:10;4.85;;;3.50;;
37517;SDS011;23366;52.498;13.446;2023-03-29T02:47:49;7.38;;;3.47;;
37517;SDS011;23366;52.498;13.446;2023-03-29T02:50:17;6.03;;;4.13;;
37517;SDS011;23366;52.498;13.446;2023-03-29T02:52:47;11.55;;;3.97;;
37517;SDS011;23366;52.498;13.446;2023-03-29T02:55:17;11.52;;;5.03;;
37517;SDS011;23366;52.498;13.446;2023-03-29T02:57:45;6.97;;;3.88;;
37517;SDS011;23366;52.498;13.446;2023-03-29T03:00:11;9.63;;;5.03;;
37517;SDS011;23366;52.498;13.446;2023-03-29T03:02:38;7.68;;;5.25;;
37517;SDS011;23366;52.498;13.446;2023-03-29T03:05:04;7.43;;;5.00;;
37517;SDS011;23366;52.498;13.446;2023-03-29T03:07:30;7.10;;;4.55;;
37517;SDS011;23366;52.498;13.446;2023-03-29T03:09:57;7.55;;;3.92;;
37517;SDS011;23366;52.498;13.446;2023-03-29T03:12:23;15.82;;;4.18;;
37517;SDS011;23366;52.498;13.446;2023-03-29T03:14:48;6.32;;;3.88;;
37517;SDS011;23366;52.498;13.446;2023-03-29T03:17:14;8.30;;;3.35;;
37517;SDS011;23366;52.498;13.446;2023-03-29T03:19:39;10.52;;;4.97;;
37517;SDS011;23366;52.498;13.446;2023-03-29T03:22:05;6.40;;;3.83;;
37517;SDS011;23366;52.498;13.446;2023-03-29T03:24:31;6.45;;;3.95;;
37517;SDS011;23366;52.498;13.446;2023-03-29T03:26:57;9.65;;;3.95;;
37517;SDS011;23366;52.498;13.446;2023-03-29T03:29:23;4.28;;;3.30;;
37517;SDS011;23366;52.498;13.446;2023-03-29T03:31:49;4.45;;;2.78;;
37517;SDS011;23366;52.498;13.446;2023-03-29T03:34:16;7.47;;;4.30;;
37517;SDS011;23366;52.498;13.446;2023-03-29T03:36:43;14.25;;;4.20;;
37517;SDS011;23366;52.498;13.446;2023-03-29T03:39:11;9.95;;;5.15;;
37517;SDS011;23366;52.498;13.446;2023-03-29T03:41:36;10.68;;;4.25;;
37517;SDS011;23366;52.498;13.446;2023-03-29T03:44:03;13.32;;;5.93;;
37517;SDS011;23366;52.498;13.446;2023-03-29T03:46:29;16.70;;;4.60;;
37517;SDS011;23366;52.498;13.446;2023-03-29T03:48:54;9.02;;;4.78;;
37517;SDS011;23366;52.498;13.446;2023-03-29T03:51:20;7.70;;;3.65;;
37517;SDS011;23366;52.498;13.446;2023-03-29T03:53:46;4.68;;;2.38;;
37517;SDS011;23366;52.498;13.446;2023-03-29T03:56:11;5.00;;;2.67;;
37517;SDS011;23366;52.498;13.446;2023-03-29T03:58:37;5.50;;;2.70;;
37517;SDS011;23366;52.498;13.446;2023-03-29T04:01:03;4.18;;;2.92;;
37517;SDS011;23366;52.498;13.446;2023-03-29T04:03:30;3.13;;;2.47;;
37517;SDS011;23366;52.498;13.446;2023-03-29T04:05:58;7.47;;;3.00;;
37517;SDS011;23366;52.498;13.446;2023-03-29T04:08:24;3.75;;;2.17;;
37517;SDS011;23366;52.498;13.446;2023-03-29T04:10:54;7.45;;;1.90;;
37517;SDS011;23366;52.498;13.446;2023-03-29T04:13:21;3.20;;;2.38;;
37517;SDS011;23366;52.498;13.446;2023-03-29T04:15:48;7.13;;;3.17;;
37517;SDS011;23366;52.498;13.446;2023-03-29T04:18:21;6.60;;;2.13;;
37517;SDS011;23366;52.498;13.446;2023-03-29T04:20:47;2.53;;;1.42;;
37517;SDS011;23366;52.498;13.446;2023-03-29T04:23:15;7.75;;;2.03;;
37517;SDS011;23366;52.498;13.446;2023-03-29T04:25:41;6.28;;;2.28;;
37517;SDS011;23366;52.498;13.446;2023-03-29T04:28:08;4.03;;;1.83;;
37517;SDS011;23366;52.498;13.446;2023-03-29T04:30:35;3.65;;;2.28;;
37517;SDS011;23366;52.498;13.446;2023-03-29T04:33:00;5.43;;;1.80;;
37517;SDS011;23366;52.498;13.446;2023-03-29T04:35:26;3.72;;;2.10;;
37517;SDS011;23366;52.498;13.446;2023-03-29T04:37:52;2.83;;;1.83;;
37517;SDS011;23366;52.498;13.446;2023-03-29T04:40:18;7.20;;;2.88;;
37517;SDS011;23366;52.498;13.446;2023-03-29T04:42:45;10.60;;;2.58;;
37517;SDS011;23366;52.498;13.446;2023-03-29T04:45:12;4.45;;;2.10;;
37517;SDS011;23366;52.498;13.446;2023-03-29T04:47:38;5.93;;;3.67;;
37517;SDS011;23366;52.498;13.446;2023-03-29T04:50:05;5.47;;;2.55;;
37517;SDS011;23366;52.498;13.446;2023-03-29T04:52:32;5.65;;;2.70;;
37517;SDS011;23366;52.498;13.446;2023-03-29T04:54:58;15.88;;;3.28;;
37517;SDS011;23366;52.498;13.446;2023-03-29T04:57:25;7.63;;;2.58;;
37517;SDS011;23366;52.498;13.446;2023-03-29T04:59:51;2.60;;;1.95;;
37517;SDS011;23366;52.498;13.446;2023-03-29T05:02:16;3.95;;;2.15;;
37517;SDS011;23366;52.498;13.446;2023-03-29T05:04:42;5.00;;;2.08;;
37517;SDS011;23366;52.498;13.446;2023-03-29T05:07:08;8.77;;;2.40;;
37517;SDS011;23366;52.498;13.446;2023-03-29T05:09:35;11.43;;;2.58;;
37517;SDS011;23366;52.498;13.446;2023-03-29T05:12:01;8.02;;;2.33;;
37517;SDS011;23366;52.498;13.446;2023-03-29T05:14:27;3.50;;;2.30;;
37517;SDS011;23366;52.498;13.446;2023-03-29T05:16:52;9.80;;;2.20;;
37517;SDS011;23366;52.498;13.446;2023-03-29T05:19:18;17.42;;;3.92;;
37517;SDS011;23366;52.498;13.446;2023-03-29T05:21:46;3.88;;;2.47;;
37517;SDS011;23366;52.498;13.446;2023-03-29T05:24:14;8.95;;;2.30;;
37517;SDS011;23366;52.498;13.446;2023-03-29T05:26:40;5.18;;;3.10;;
37517;SDS011;23366;52.498;13.446;2023-03-29T05:29:06;7.63;;;2.55;;
37517;SDS011;23366;52.498;13.446;2023-03-29T05:31:33;12.15;;;3.47;;
37517;SDS011;23366;52.498;13.446;2023-03-29T05:34:00;6.63;;;2.80;;
37517;SDS011;23366;52.498;13.446;2023-03-29T05:36:25;6.05;;;2.25;;
37517;SDS011;23366;52.498;13.446;2023-03-29T05:38:52;6.20;;;1.92;;
37517;SDS011;23366;52.498;13.446;2023-03-29T05:41:17;8.18;;;2.15;;
37517;SDS011;23366;52.498;13.446;2023-03-29T05:43:43;7.30;;;2.70;;
37517;SDS011;23366;52.498;13.446;2023-03-29T05:46:08;7.75;;;2.17;;
37517;SDS011;23366;52.498;13.446;2023-03-29T05:48:34;6.53;;;2.47;;
37517;SDS011;23366;52.498;13.446;2023-03-29T05:51:00;9.43;;;2.75;;
37517;SDS011;23366;52.498;13.446;2023-03-29T05:53:27;7.93;;;3.40;;
37517;SDS011;23366;52.498;13.446;2023-03-29T05:55:53;4.70;;;2.65;;
37517;SDS011;23366;52.498;13.446;2023-03-29T05:58:18;14.02;;;3.55;;
37517;SDS011;23366;52.498;13.446;2023-03-29T06:00:46;3.50;;;2.53;;
37517;SDS011;23366;52.498;13.446;2023-03-29T06:03:17;13.40;;;3.13;;
37517;SDS011;23366;52.498;13.446;2023-03-29T06:05:45;6.53;;;2.75;;
37517;SDS011;23366;52.498;13.446;2023-03-29T06:08:12;4.70;;;2.17;;
37517;SDS011;23366;52.498;13.446;2023-03-29T06:10:38;2.75;;;1.88;;
37517;SDS011;23366;52.498;13.446;2023-03-29T06:13:04;6.43;;;2.65;;
37517;SDS011;23366;52.498;13.446;2023-03-29T06:15:31;4.00;;;1.67;;
37517;SDS011;23366;52.498;13.446;2023-03-29T06:17:56;11.13;;;3.28;;
37517;SDS011;23366;52.498;13.446;2023-03-29T06:20:23;8.35;;;2.28;;
37517;SDS011;23366;52.498;13.446;2023-03-29T06:22:49;6.40;;;2.17;;
37517;SDS011;23366;52.498;13.446;2023-03-29T06:25:14;5.60;;;2.65;;
37517;SDS011;23366;52.498;13.446;2023-03-29T06:27:42;6.43;;;2.25;;
37517;SDS011;23366;52.498;13.446;2023-03-29T06:30:08;5.13;;;2.28;;
37517;SDS011;23366;52.498;13.446;2023-03-29T06:32:33;5.07;;;1.75;;
37517;SDS011;23366;52.498;13.446;2023-03-29T06:35:00;11.32;;;2.55;;
37517;SDS011;23366;52.498;13.446;2023-03-29T06:37:27;8.32;;;2.63;;
37517;SDS011;23366;52.498;13.446;2023-03-29T06:39:53;7.70;;;2.15;;
37517;SDS011;23366;52.498;13.446;2023-03-29T06:42:18;11.95;;;3.92;;
37517;SDS011;23366;52.498;13.446;2023-03-29T06:44:44;8.90;;;4.35;;
37517;SDS011;23366;52.498;13.446;2023-03-29T06:47:11;8.18;;;1.90;;
37517;SDS011;23366;52.498;13.446;2023-03-29T06:49:37;4.75;;;2.53;;
37517;SDS011;23366;52.498;13.446;2023-03-29T06:52:03;10.20;;;2.45;;
37517;SDS011;23366;52.498;13.446;2023-03-29T06:54:29;6.30;;;2.42;;
37517;SDS011;23366;52.498;13.446;2023-03-29T06:56:55;3.65;;;2.10;;
37517;SDS011;23366;52.498;13.446;2023-03-29T06:59:21;6.13;;;2.60;;
37517;SDS011;23366;52.498;13.446;2023-03-29T07:01:47;5.68;;;1.90;;
37517;SDS011;23366;52.498;13.446;2023-03-29T07:04:12;6.88;;;3.03;;
37517;SDS011;23366;52.498;13.446;2023-03-29T07:06:38;6.50;;;2.17;;
37517;SDS011;23366;52.498;13.446;2023-03-29T07:09:04;4.78;;;1.88;;
37517;SDS011;23366;52.498;13.446;2023-03-29T07:11:31;6.65;;;1.65;;
37517;SDS011;23366;52.498;13.446;2023-03-29T07:13:59;11.10;;;2.92;;
37517;SDS011;23366;52.498;13.446;2023-03-29T07:16:26;4.20;;;2.00;;
37517;SDS011;23366;52.498;13.446;2023-03-29T07:18:51;6.13;;;2.20;;
37517;SDS011;23366;52.498;13.446;2023-03-29T07:21:17;8.13;;;2.50;;
37517;SDS011;23366;52.498;13.446;2023-03-29T07:23:44;9.77;;;2.35;;
37517;SDS011;23366;52.498;13.446;2023-03-29T07:26:10;8.60;;;2.53;;
37517;SDS011;23366;52.498;13.446;2023-03-29T07:28:36;5.15;;;2.25;;
37517;SDS011;23366;52.498;13.446;2023-03-29T07:31:03;11.45;;;2.78;;
37517;SDS011;23366;52.498;13.446;2023-03-29T07:33:36;3.58;;;2.28;;
37517;SDS011;23366;52.498;13.446;2023-03-29T07:36:02;4.78;;;2.47;;
37517;SDS011;23366;52.498;13.446;2023-03-29T07:38:29;10.02;;;2.83;;
37517;SDS011;23366;52.498;13.446;2023-03-29T07:40:55;3.42;;;1.50;;
37517;SDS011;23366;52.498;13.446;2023-03-29T07:43:21;5.10;;;2.30;;
37517;SDS011;23366;52.498;13.446;2023-03-29T07:45:48;6.65;;;2.85;;
37517;SDS011;23366;52.498;13.446;2023-03-29T07:48:15;3.03;;;2.17;;
37517;SDS011;23366;52.498;13.446;2023-03-29T07:50:42;5.63;;;1.88;;
37517;SDS011;23366;52.498;13.446;2023-03-29T07:53:08;4.72;;;1.77;;
37517;SDS011;23366;52.498;13.446;2023-03-29T07:55:34;3.97;;;2.53;;
37517;SDS011;23366;52.498;13.446;2023-03-29T07:57:59;5.88;;;2.70;;
37517;SDS011;23366;52.498;13.446;2023-03-29T08:00:26;2.90;;;1.73;;
37517;SDS011;23366;52.498;13.446;2023-03-29T08:02:52;4.63;;;2.28;;
37517;SDS011;23366;52.498;13.446;2023-03-29T08:05:18;5.10;;;2.40;;
37517;SDS011;23366;52.498;13.446;2023-03-29T08:07:45;5.18;;;1.80;;
37517;SDS011;23366;52.498;13.446;2023-03-29T08:10:12;3.17;;;1.85;;
37517;SDS011;23366;52.498;13.446;2023-03-29T08:12:39;3.08;;;1.80;;
37517;SDS011;23366;52.498;13.446;2023-03-29T08:15:06;4.03;;;1.95;;
37517;SDS011;23366;52.498;13.446;2023-03-29T08:17:33;3.33;;;1.50;;
37517;SDS011;23366;52.498;13.446;2023-03-29T08:20:00;10.43;;;2.78;;
37517;SDS011;23366;52.498;13.446;2023-03-29T08:22:26;3.17;;;2.00;;
37517;SDS011;23366;52.498;13.446;2023-03-29T08:24:52;5.78;;;3.13;;
37517;SDS011;23366;52.498;13.446;2023-03-29T08:27:18;4.15;;;1.70;;
37517;SDS011;23366;52.498;13.446;2023-03-29T08:29:44;5.40;;;1.70;;
37517;SDS011;23366;52.498;13.446;2023-03-29T08:32:10;2.75;;;1.50;;
37517;SDS011;23366;52.498;13.446;2023-03-29T08:34:36;9.85;;;2.10;;
37517;SDS011;23366;52.498;13.446;2023-03-29T08:37:02;5.80;;;2.33;;
37517;SDS011;23366;52.498;13.446;2023-03-29T08:39:29;4.05;;;1.60;;
37517;SDS011;23366;52.498;13.446;2023-03-29T08:48:13;4.70;;;1.90;;
37517;SDS011;23366;52.498;13.446;2023-03-29T08:50:53;4.55;;;1.63;;
37517;SDS011;23366;52.498;13.446;2023-03-29T08:53:26;2.65;;;1.30;;
37517;SDS011;23366;52.498;13.446;2023-03-29T08:55:58;4.35;;;1.90;;
37517;SDS011;23366;52.498;13.446;2023-03-29T08:58:28;8.15;;;1.60;;
37517;SDS011;23366;52.498;13.446;2023-03-29T09:00:57;3.72;;;1.90;;
37517;SDS011;23366;52.498;13.446;2023-03-29T09:03:36;3.47;;;1.10;;
37517;SDS011;23366;52.498;13.446;2023-03-29T09:06:13;3.30;;;1.73;;
37517;SDS011;23366;52.498;13.446;2023-03-29T09:08:43;2.75;;;1.20;;
37517;SDS011;23366;52.498;13.446;2023-03-29T09:14:05;2.78;;;1.10;;
37517;SDS011;23366;52.498;13.446;2023-03-29T09:24:46;5.28;;;1.60;;
37517;SDS011;23366;52.498;13.446;2023-03-29T09:32:35;2.50;;;1.60;;
37517;SDS011;23366;52.498;13.446;2023-03-29T09:35:13;3.13;;;1.73;;
37517;SDS011;23366;52.498;13.446;2023-03-29T09:37:46;6.35;;;2.28;;
37517;SDS011;23366;52.498;13.446;2023-03-29T09:40:20;3.80;;;1.58;;
37517;SDS011;23366;52.498;13.446;2023-03-29T09:42:58;6.50;;;1.77;;
37517;SDS011;23366;52.498;13.446;2023-03-29T09:45:28;7.63;;;1.88;;
37517;SDS011;23366;52.498;13.446;2023-03-29T09:47:55;2.08;;;1.55;;
37517;SDS011;23366;52.498;13.446;2023-03-29T09:50:43;2.63;;;1.60;;
37517;SDS011;23366;52.498;13.446;2023-03-29T09:53:12;2.38;;;1.77;;
37517;SDS011;23366;52.498;13.446;2023-03-29T09:55:39;3.95;;;1.08;;
37517;SDS011;23366;52.498;13.446;2023-03-29T09:58:27;3.38;;;1.40;;
37517;SDS011;23366;52.498;13.446;2023-03-29T10:01:02;3.22;;;1.92;;
37517;SDS011;23366;52.498;13.446;2023-03-29T10:03:32;8.27;;;1.95;;
37517;SDS011;23366;52.498;13.446;2023-03-29T10:05:59;1.95;;;1.17;;
37517;SDS011;23366;52.498;13.446;2023-03-29T10:08:27;1.65;;;1.23;;
37517;SDS011;23366;52.498;13.446;2023-03-29T10:10:56;3.40;;;1.85;;
37517;SDS011;23366;52.498;13.446;2023-03-29T10:13:26;2.40;;;1.13;;
37517;SDS011;23366;52.498;13.446;2023-03-29T10:16:02;1.58;;;1.23;;
37517;SDS011;23366;52.498;13.446;2023-03-29T10:18:31;1.75;;;1.08;;
37517;SDS011;23366;52.498;13.446;2023-03-29T10:21:03;2.08;;;1.23;;
37517;SDS011;23366;52.498;13.446;2023-03-29T10:23:32;6.70;;;1.90;;
37517;SDS011;23366;52.498;13.446;2023-03-29T10:26:02;1.33;;;0.95;;
37517;SDS011;23366;52.498;13.446;2023-03-29T10:28:30;2.58;;;1.40;;
37517;SDS011;23366;52.498;13.446;2023-03-29T10:30:57;4.03;;;1.27;;
37517;SDS011;23366;52.498;13.446;2023-03-29T10:33:27;3.83;;;1.52;;
37517;SDS011;23366;52.498;13.446;2023-03-29T10:35:58;3.13;;;1.48;;
37517;SDS011;23366;52.498;13.446;2023-03-29T10:38:27;2.35;;;1.52;;
37517;SDS011;23366;52.498;13.446;2023-03-29T10:40:53;2.83;;;1.30;;
37517;SDS011;23366;52.498;13.446;2023-03-29T10:43:32;2.83;;;1.40;;
37517;SDS011;23366;52.498;13.446;2023-03-29T10:46:06;5.93;;;1.42;;
37517;SDS011;23366;52.498;13.446;2023-03-29T10:51:12;4.60;;;1.80;;
37517;SDS011;23366;52.498;13.446;2023-03-29T10:53:38;4.47;;;1.30;;
37517;SDS011;23366;52.498;13.446;2023-03-29T11:05:04;4.72;;;1.45;;
37517;SDS011;23366;52.498;13.446;2023-03-29T11:13:21;2.80;;;2.00;;
37517;SDS011;23366;52.498;13.446;2023-03-29T11:21:27;7.93;;;1.70;;
37517;SDS011;23366;52.498;13.446;2023-03-29T11:30:07;2.63;;;1.75;;
37517;SDS011;23366;52.498;13.446;2023-03-29T11:33:17;2.33;;;1.63;;
37517;SDS011;23366;52.498;13.446;2023-03-29T11:36:00;1.65;;;1.17;;
37517;SDS011;23366;52.498;13.446;2023-03-29T11:44:25;6.22;;;1.20;;
37517;SDS011;23366;52.498;13.446;2023-03-29T11:52:28;2.08;;;1.38;;
37517;SDS011;23366;52.498;13.446;2023-03-29T11:54:58;2.87;;;1.67;;
37517;SDS011;23366;52.498;13.446;2023-03-29T11:57:36;3.33;;;1.55;;
37517;SDS011;23366;52.498;13.446;2023-03-29T12:02:47;5.07;;;1.85;;
37517;SDS011;23366;52.498;13.446;2023-03-29T12:08:14;2.00;;;1.50;;
37517;SDS011;23366;52.498;13.446;2023-03-29T12:10:50;2.45;;;1.48;;
37517;SDS011;23366;52.498;13.446;2023-03-29T12:13:29;5.38;;;2.20;;
37517;SDS011;23366;52.498;13.446;2023-03-29T12:15:59;2.33;;;1.35;;
37517;SDS011;23366;52.498;13.446;2023-03-29T12:18:47;3.40;;;2.03;;
37517;SDS011;23366;52.498;13.446;2023-03-29T12:21:20;4.05;;;1.90;;
37517;SDS011;23366;52.498;13.446;2023-03-29T12:23:47;5.18;;;1.98;;
37517;SDS011;23366;52.498;13.446;2023-03-29T12:31:38;3.80;;;2.67;;
37517;SDS011;23366;52.498;13.446;2023-03-29T12:37:09;2.92;;;1.52;;
37517;SDS011;23366;52.498;13.446;2023-03-29T12:39:36;2.38;;;2.17;;
37517;SDS011;23366;52.498;13.446;2023-03-29T12:42:16;3.35;;;1.98;;
37517;SDS011;23366;52.498;13.446;2023-03-29T12:44:47;5.93;;;2.53;;
37517;SDS011;23366;52.498;13.446;2023-03-29T12:47:22;3.80;;;1.70;;
37517;SDS011;23366;52.498;13.446;2023-03-29T12:49:59;3.13;;;1.83;;
37517;SDS011;23366;52.498;13.446;2023-03-29T12:52:34;3.00;;;1.95;;
37517;SDS011;23366;52.498;13.446;2023-03-29T12:55:02;3.53;;;1.80;;
37517;SDS011;23366;52.498;13.446;2023-03-29T12:57:44;2.65;;;1.90;;
37517;SDS011;23366;52.498;13.446;2023-03-29T13:00:26;4.28;;;1.42;;
37517;SDS011;23366;52.498;13.446;2023-03-29T13:02:58;3.67;;;1.80;;
37517;SDS011;23366;52.498;13.446;2023-03-29T13:05:30;2.38;;;1.42;;
37517;SDS011;23366;52.498;13.446;2023-03-29T13:07:58;4.32;;;1.35;;
37517;SDS011;23366;52.498;13.446;2023-03-29T13:10:38;4.35;;;2.28;;
37517;SDS011;23366;52.498;13.446;2023-03-29T13:13:08;5.20;;;1.83;;
37517;SDS011;23366;52.498;13.446;2023-03-29T13:15:39;3.75;;;1.30;;
37517;SDS011;23366;52.498;13.446;2023-03-29T13:23:31;3.40;;;1.98;;
37517;SDS011;23366;52.498;13.446;2023-03-29T13:29:14;3.03;;;2.28;;
37517;SDS011;23366;52.498;13.446;2023-03-29T13:31:40;5.85;;;2.28;;
37517;SDS011;23366;52.498;13.446;2023-03-29T13:37:20;5.03;;;2.00;;
37517;SDS011;23366;52.498;13.446;2023-03-29T13:40:00;2.20;;;1.30;;
37517;SDS011;23366;52.498;13.446;2023-03-29T13:47:45;2.05;;;1.35;;
37517;SDS011;23366;52.498;13.446;2023-03-29T13:50:14;3.72;;;1.77;;
37517;SDS011;23366;52.498;13.446;2023-03-29T13:53:06;4.53;;;2.25;;
37517;SDS011;23366;52.498;13.446;2023-03-29T13:55:36;3.67;;;2.30;;
37517;SDS011;23366;52.498;13.446;2023-03-29T14:01:27;4.75;;;2.17;;
37517;SDS011;23366;52.498;13.446;2023-03-29T14:03:56;4.82;;;2.42;;
37517;SDS011;23366;52.498;13.446;2023-03-29T14:06:24;3.10;;;1.58;;
37517;SDS011;23366;52.498;13.446;2023-03-29T14:08:55;4.22;;;1.95;;
37517;SDS011;23366;52.498;13.446;2023-03-29T14:11:24;3.50;;;2.00;;
37517;SDS011;23366;52.498;13.446;2023-03-29T14:13:55;4.97;;;2.47;;
37517;SDS011;23366;52.498;13.446;2023-03-29T14:16:25;8.68;;;2.80;;
37517;SDS011;23366;52.498;13.446;2023-03-29T14:19:01;4.80;;;1.60;;
37517;SDS011;23366;52.498;13.446;2023-03-29T14:21:28;5.65;;;2.60;;
37517;SDS011;23366;52.498;13.446;2023-03-29T14:23:58;5.95;;;2.22;;
37517;SDS011;23366;52.498;13.446;2023-03-29T14:26:29;2.63;;;1.55;;
37517;SDS011;23366;52.498;13.446;2023-03-29T14:28:56;2.65;;;1.80;;
37517;SDS011;23366;52.498;13.446;2023-03-29T14:31:28;2.92;;;1.75;;
37517;SDS011;23366;52.498;13.446;2023-03-29T14:33:56;3.80;;;2.10;;
37517;SDS011;23366;52.498;13.446;2023-03-29T14:36:23;3.42;;;2.35;;
37517;SDS011;23366;52.498;13.446;2023-03-29T14:38:52;4.22;;;2.00;;
37517;SDS011;23366;52.498;13.446;2023-03-29T14:41:33;3.10;;;1.90;;
37517;SDS011;23366;52.498;13.446;2023-03-29T14:44:00;4.95;;;2.10;;
37517;SDS011;23366;52.498;13.446;2023-03-29T14:46:28;6.18;;;2.13;;
37517;SDS011;23366;52.498;13.446;2023-03-29T14:48:54;5.50;;;2.47;;
37517;SDS011;23366;52.498;13.446;2023-03-29T14:51:21;7.38;;;2.72;;
37517;SDS011;23366;52.498;13.446;2023-03-29T14:53:52;6.93;;;3.85;;
37517;SDS011;23366;52.498;13.446;2023-03-29T14:56:18;5.47;;;2.90;;
37517;SDS011;23366;52.498;13.446;2023-03-29T14:58:48;3.67;;;2.20;;
37517;SDS011;23366;52.498;13.446;2023-03-29T15:01:18;6.22;;;4.03;;
37517;SDS011;23366;52.498;13.446;2023-03-29T15:06:20;3.55;;;2.33;;
37517;SDS011;23366;52.498;13.446;2023-03-29T15:08:50;8.15;;;2.70;;
37517;SDS011;23366;52.498;13.446;2023-03-29T15:11:19;4.63;;;2.55;;
37517;SDS011;23366;52.498;13.446;2023-03-29T15:13:48;6.75;;;3.00;;
37517;SDS011;23366;52.498;13.446;2023-03-29T15:16:20;5.85;;;2.22;;
37517;SDS011;23366;52.498;13.446;2023-03-29T15:18:47;3.38;;;1.98;;
37517;SDS011;23366;52.498;13.446;2023-03-29T15:21:16;3.97;;;2.10;;
37517;SDS011;23366;52.498;13.446;2023-03-29T15:23:47;4.93;;;2.90;;
37517;SDS011;23366;52.498;13.446;2023-03-29T15:26:21;4.53;;;2.88;;
37517;SDS011;23366;52.498;13.446;2023-03-29T15:28:51;3.88;;;2.35;;
37517;SDS011;23366;52.498;13.446;2023-03-29T15:31:25;4.22;;;3.17;;
37517;SDS011;23366;52.498;13.446;2023-03-29T15:34:00;2.80;;;2.08;;
37517;SDS011;23366;52.498;13.446;2023-03-29T15:38:53;6.28;;;2.97;;
37517;SDS011;23366;52.498;13.446;2023-03-29T15:41:19;6.28;;;3.63;;
37517;SDS011;23366;52.498;13.446;2023-03-29T15:43:45;3.60;;;2.75;;
37517;SDS011;23366;52.498;13.446;2023-03-29T15:46:11;7.60;;;3.58;;
37517;SDS011;23366;52.498;13.446;2023-03-29T15:48:41;5.97;;;3.22;;
37517;SDS011;23366;52.498;13.446;2023-03-29T15:51:10;6.07;;;3.20;;
37517;SDS011;23366;52.498;13.446;2023-03-29T15:53:36;5.30;;;3.35;;
37517;SDS011;23366;52.498;13.446;2023-03-29T15:56:04;7.15;;;3.72;;
37517;SDS011;23366;52.498;13.446;2023-03-29T15:58:35;5.47;;;2.90;;
37517;SDS011;23366;52.498;13.446;2023-03-29T16:01:09;4.95;;;3.28;;
37517;SDS011;23366;52.498;13.446;2023-03-29T16:04:18;5.72;;;2.90;;
37517;SDS011;23366;52.498;13.446;2023-03-29T16:06:47;6.53;;;2.85;;
37517;SDS011;23366;52.498;13.446;2023-03-29T16:09:14;4.05;;;2.88;;
37517;SDS011;23366;52.498;13.446;2023-03-29T16:11:41;5.65;;;3.03;;
37517;SDS011;23366;52.498;13.446;2023-03-29T16:14:24;4.30;;;2.90;;
37517;SDS011;23366;52.498;13.446;2023-03-29T16:16:55;5.28;;;3.60;;
37517;SDS011;23366;52.498;13.446;2023-03-29T16:19:22;8.25;;;3.28;;
37517;SDS011;23366;52.498;13.446;2023-03-29T16:21:51;6.43;;;3.33;;
37517;SDS011;23366;52.498;13.446;2023-03-29T16:24:18;6.53;;;3.25;;
37517;SDS011;23366;52.498;13.446;2023-03-29T16:26:46;10.38;;;4.03;;
37517;SDS011;23366;52.498;13.446;2023-03-29T16:29:12;8.32;;;3.28;;
37517;SDS011;23366;52.498;13.446;2023-03-29T16:31:38;4.65;;;3.22;;
37517;SDS011;23366;52.498;13.446;2023-03-29T16:34:04;5.88;;;3.88;;
37517;SDS011;23366;52.498;13.446;2023-03-29T16:36:30;7.30;;;3.97;;
37517;SDS011;23366;52.498;13.446;2023-03-29T16:38:57;7.47;;;3.65;;
37517;SDS011;23366;52.498;13.446;2023-03-29T16:41:24;7.63;;;3.58;;
37517;SDS011;23366;52.498;13.446;2023-03-29T16:43:50;5.70;;;2.88;;
37517;SDS011;23366;52.498;13.446;2023-03-29T16:46:15;7.93;;;4.07;;
37517;SDS011;23366;52.498;13.446;2023-03-29T16:48:41;4.50;;;3.20;;
37517;SDS011;23366;52.498;13.446;2023-03-29T16:51:07;8.00;;;3.78;;
37517;SDS011;23366;52.498;13.446;2023-03-29T16:53:33;7.32;;;4.85;;
37517;SDS011;23366;52.498;13.446;2023-03-29T16:55:59;8.20;;;4.55;;
37517;SDS011;23366;52.498;13.446;2023-03-29T16:58:26;7.97;;;4.10;;